createdAt,value
2023-02-08T00:01:59.295Z,99.90
2023-02-08T00:06:01.055Z,99.90
2023-02-08T00:10:05.112Z,99.90
2023-02-08T00:14:08.719Z,99.90
2023-02-08T00:18:10.669Z,99.90
2023-02-08T00:22:12.461Z,99.90
2023-02-08T00:26:15.225Z,99.90
2023-02-08T00:30:17.019Z,99.90
2023-02-08T00:34:18.681Z,99.90
2023-02-08T00:38:20.344Z,99.90
2023-02-08T00:42:22.015Z,99.90
2023-02-08T00:46:23.827Z,99.90
2023-02-08T00:50:25.820Z,99.90
2023-02-08T00:54:27.547Z,99.90
2023-02-08T00:58:29.217Z,99.90
2023-02-08T01:02:31.047Z,99.90
2023-02-08T01:06:33.274Z,99.90
2023-02-08T01:10:34.992Z,99.90
2023-02-08T01:14:38.807Z,99.90
2023-02-08T01:18:42.381Z,99.90
2023-02-08T01:22:44.034Z,99.90
2023-02-08T01:26:45.950Z,99.90
2023-02-08T01:30:47.622Z,99.90
2023-02-08T01:34:49.276Z,99.90
2023-02-08T01:38:51.206Z,99.90
2023-02-08T01:42:52.806Z,99.90
2023-02-08T01:46:54.431Z,99.90
2023-02-08T01:51:01.066Z,99.90
2023-02-08T01:55:06.208Z,99.90
2023-02-08T01:59:17.840Z,99.90
2023-02-08T02:03:22.080Z,99.90
2023-02-08T02:07:28.115Z,99.90
2023-02-08T02:11:29.821Z,99.90
2023-02-08T02:15:31.514Z,99.90
2023-02-08T02:20:00.267Z,99.90
2023-02-08T02:24:56.609Z,99.90
2023-02-08T02:29:26.839Z,99.90
2023-02-08T02:33:57.507Z,99.90
2023-02-08T02:38:36.932Z,99.90
2023-02-08T02:43:16.007Z,99.90
2023-02-08T02:47:20.402Z,99.90
2023-02-08T02:51:41.818Z,99.90
2023-02-08T02:55:49.818Z,99.90
2023-02-08T02:59:52.015Z,99.90
2023-02-08T03:03:54.362Z,99.90
2023-02-08T03:08:14.722Z,99.90
2023-02-08T03:12:37.145Z,99.90
2023-02-08T03:17:00.143Z,99.90
2023-02-08T03:21:39.301Z,99.90
2023-02-08T03:25:49.809Z,99.90
2023-02-08T03:29:54.414Z,99.90
2023-02-08T03:34:15.120Z,99.90
2023-02-08T03:38:23.256Z,99.90
2023-02-08T03:42:27.864Z,99.90
2023-02-08T03:46:33.765Z,99.90
2023-02-08T03:50:39.728Z,99.90
2023-02-08T03:54:55.901Z,99.90
2023-02-08T03:59:04.316Z,99.90
2023-02-08T04:03:17.831Z,99.90
2023-02-08T04:07:20.179Z,99.90
2023-02-08T04:11:22.133Z,99.90
2023-02-08T04:15:23.840Z,99.90
2023-02-08T04:19:25.516Z,99.90
2023-02-08T04:23:27.142Z,99.90
2023-02-08T04:27:28.779Z,99.90
2023-02-08T04:31:30.617Z,99.90
2023-02-08T04:35:32.360Z,99.90
2023-02-08T04:39:34.092Z,99.90
2023-02-08T04:43:35.792Z,99.90
2023-02-08T04:47:37.499Z,99.90
2023-02-08T04:51:39.179Z,99.90
2023-02-08T04:55:40.848Z,99.90
2023-02-08T04:59:42.816Z,99.90
2023-02-08T05:03:44.530Z,99.90
2023-02-08T05:07:46.190Z,99.90
2023-02-08T05:11:47.897Z,99.90
2023-02-08T05:15:49.550Z,99.90
2023-02-08T05:19:51.338Z,99.90
2023-02-08T05:23:53.218Z,99.90
2023-02-08T05:27:54.968Z,99.90
2023-02-08T05:31:56.644Z,99.90
2023-02-08T05:35:58.392Z,99.90
2023-02-08T05:40:00.018Z,99.90
2023-02-08T05:44:01.701Z,99.90
2023-02-08T05:48:03.416Z,99.90
2023-02-08T05:52:05.259Z,99.90
2023-02-08T05:56:07.210Z,99.90
2023-02-08T06:00:09.855Z,99.90
2023-02-08T06:04:11.536Z,99.90
2023-02-08T06:08:13.214Z,99.90
2023-02-08T06:12:14.901Z,99.90
2023-02-08T06:16:19.807Z,99.90
2023-02-08T06:20:21.746Z,99.90
2023-02-08T06:24:25.089Z,99.90
2023-02-08T06:28:26.798Z,99.90
2023-02-08T06:32:28.509Z,99.90
2023-02-08T06:36:30.377Z,99.90
2023-02-08T06:40:32.011Z,99.90
2023-02-08T06:44:33.654Z,99.90
2023-02-08T06:48:35.791Z,99.90
2023-02-08T06:52:37.723Z,99.90
2023-02-08T06:56:39.377Z,99.90
2023-02-08T07:00:41.593Z,99.90
2023-02-08T07:04:45.197Z,99.90
2023-02-08T07:08:47.690Z,99.90
2023-02-08T07:12:49.310Z,99.90
2023-02-08T07:16:51.571Z,99.90
2023-02-08T07:20:53.306Z,99.90
2023-02-08T07:24:55.153Z,99.90
2023-02-08T07:28:58.434Z,99.90
2023-02-08T07:33:00.108Z,99.90
2023-02-08T07:37:02.102Z,99.90
2023-02-08T07:41:09.973Z,99.90
2023-02-08T07:45:11.607Z,99.90
2023-02-08T07:49:13.262Z,99.90
2023-02-08T07:53:14.916Z,99.90
2023-02-08T07:57:20.986Z,99.90
2023-02-08T08:01:23.229Z,99.90
2023-02-08T08:05:25.055Z,99.90
2023-02-08T08:09:26.817Z,99.90
2023-02-08T08:13:28.466Z,99.90
2023-02-08T08:17:30.333Z,99.90
2023-02-08T08:21:32.482Z,99.90
2023-02-08T08:25:34.423Z,99.90
2023-02-08T08:29:37.444Z,99.90
2023-02-08T08:33:39.196Z,99.90
2023-02-08T08:37:40.950Z,99.90
2023-02-08T08:41:43.616Z,99.90
2023-02-08T08:45:45.389Z,99.90
2023-02-08T08:49:47.194Z,99.90
2023-02-08T08:53:48.835Z,99.90
2023-02-08T08:57:53.330Z,99.90
2023-02-08T09:01:55.249Z,99.90
2023-02-08T09:05:57.064Z,99.90
2023-02-08T09:09:58.749Z,99.90
2023-02-08T09:14:04.574Z,99.90
2023-02-08T09:18:06.818Z,99.90
2023-02-08T09:22:08.884Z,99.90
2023-02-08T09:26:12.717Z,99.90
2023-02-08T09:30:14.507Z,99.90
2023-02-08T09:34:16.149Z,99.90
2023-02-08T09:38:17.990Z,99.90
2023-02-08T09:42:38.212Z,99.90
2023-02-08T09:46:43.729Z,99.90
2023-02-08T09:50:52.718Z,99.90
2023-02-08T09:55:01.346Z,99.90
2023-02-08T09:59:03.882Z,99.90
2023-02-08T10:03:08.793Z,99.90
2023-02-08T10:07:11.540Z,99.90
2023-02-08T10:11:25.188Z,99.90
2023-02-08T10:15:26.870Z,96.60
2023-02-08T10:19:43.266Z,91.50
2023-02-08T10:24:00.007Z,89.30
2023-02-08T10:28:20.431Z,77.70
2023-02-08T10:32:42.809Z,82.90
2023-02-08T10:36:44.495Z,84.30
2023-02-08T10:40:55.430Z,85.50
2023-02-08T10:45:25.006Z,82.10
2023-02-08T10:49:34.952Z,80.30
2023-02-08T10:53:36.648Z,78.10
2023-02-08T10:57:38.596Z,86.70
2023-02-08T11:01:40.481Z,86.00
2023-02-08T11:05:42.662Z,74.30
2023-02-08T11:09:44.452Z,77.80
2023-02-08T11:13:51.334Z,75.60
2023-02-08T11:17:59.265Z,71.80
2023-02-08T11:22:05.544Z,67.60
2023-02-08T11:26:23.815Z,64.30
2023-02-08T11:30:25.927Z,70.80
2023-02-08T11:34:39.123Z,64.60
2023-02-08T11:38:42.896Z,61.40
2023-02-08T11:42:44.977Z,62.10
2023-02-08T11:46:48.591Z,60.30
2023-02-08T11:50:55.914Z,59.70
2023-02-08T11:55:15.159Z,63.20
2023-02-08T11:59:22.569Z,59.50
2023-02-08T12:03:33.558Z,58.00
2023-02-08T12:08:01.112Z,63.00
2023-02-08T12:12:21.506Z,59.10
2023-02-08T12:16:50.995Z,59.10
2023-02-08T12:21:24.404Z,60.10
2023-02-08T12:25:32.901Z,59.90
2023-02-08T12:29:47.823Z,59.40
2023-02-08T12:34:10.770Z,59.80
2023-02-08T12:38:49.877Z,60.30
2023-02-08T12:42:56.205Z,59.60
2023-02-08T12:47:15.253Z,59.20
2023-02-08T12:51:34.786Z,57.10
2023-02-08T12:55:40.541Z,60.50
2023-02-08T13:00:25.474Z,59.60
2023-02-08T13:04:40.926Z,58.40
2023-02-08T13:08:55.002Z,58.30
2023-02-08T13:13:19.746Z,58.80
2023-02-08T13:17:28.064Z,59.50
2023-02-08T13:21:37.834Z,59.10
2023-02-08T13:25:41.970Z,56.60
2023-02-08T13:29:50.554Z,56.30
2023-02-08T13:34:02.459Z,57.50
2023-02-08T13:38:07.860Z,57.80
2023-02-08T13:42:28.509Z,57.40
2023-02-08T13:46:38.889Z,55.10
2023-02-08T13:50:56.968Z,53.50
2023-02-08T13:55:31.827Z,54.30
2023-02-08T13:59:41.781Z,49.70
2023-02-08T14:03:43.727Z,48.80
2023-02-08T14:07:47.662Z,47.70
2023-02-08T14:12:22.679Z,47.00
2023-02-08T14:16:35.770Z,47.80
2023-02-08T14:20:41.714Z,48.10
2023-02-08T14:24:48.129Z,45.70
2023-02-08T14:28:55.911Z,45.40
2023-02-08T14:33:07.380Z,44.20
2023-02-08T14:37:18.164Z,45.00
2023-02-08T14:41:49.164Z,48.40
2023-02-08T14:45:53.226Z,47.30
2023-02-08T14:50:04.374Z,48.40
2023-02-08T14:54:23.312Z,48.50
2023-02-08T14:58:30.843Z,51.70
2023-02-08T15:02:34.046Z,51.80
2023-02-08T15:06:38.569Z,51.80
2023-02-08T15:10:45.379Z,54.90
2023-02-08T15:14:47.353Z,55.00
2023-02-08T15:18:51.006Z,54.60
2023-02-08T15:23:01.772Z,54.80
2023-02-08T15:27:04.595Z,56.80
2023-02-08T15:31:14.723Z,58.90
2023-02-08T15:35:24.532Z,60.90
2023-02-08T15:39:41.095Z,59.10
2023-02-08T15:43:43.567Z,60.70
2023-02-08T15:47:45.534Z,62.50
2023-02-08T15:51:48.596Z,64.50
2023-02-08T15:56:02.438Z,64.50
2023-02-08T16:00:12.092Z,67.80
2023-02-08T16:04:13.695Z,65.40
2023-02-08T16:08:24.037Z,72.60
2023-02-08T16:12:27.626Z,70.70
2023-02-08T16:16:35.046Z,75.30
2023-02-08T16:20:36.978Z,71.60
2023-02-08T16:24:38.648Z,77.10
2023-02-08T16:28:40.370Z,79.10
2023-02-08T16:32:42.687Z,85.40
2023-02-08T16:36:47.675Z,89.60
2023-02-08T16:40:54.363Z,92.20
2023-02-08T16:45:18.110Z,96.30
2023-02-08T16:49:19.917Z,99.90
2023-02-08T16:53:25.969Z,99.90
2023-02-08T16:57:53.409Z,99.90
2023-02-08T17:01:57.348Z,99.90
2023-02-08T17:06:00.932Z,99.90
2023-02-08T17:10:07.340Z,99.90
2023-02-08T17:14:10.010Z,99.90
2023-02-08T17:18:13.231Z,99.90
2023-02-08T17:22:14.925Z,99.90
2023-02-08T17:26:28.431Z,99.90
2023-02-08T17:30:34.866Z,99.90
2023-02-08T17:34:36.577Z,99.90
2023-02-08T17:38:39.708Z,99.90
2023-02-08T17:42:41.447Z,99.90
2023-02-08T17:46:43.098Z,99.90
2023-02-08T17:50:50.662Z,99.90
2023-02-08T17:54:52.261Z,99.90
2023-02-08T17:58:55.184Z,99.90
2023-02-08T18:02:59.052Z,99.90
2023-02-08T18:07:02.141Z,99.90
2023-02-08T18:11:06.312Z,99.90
2023-02-08T18:15:11.915Z,99.90
2023-02-08T18:19:13.548Z,99.90
2023-02-08T18:23:15.261Z,99.90
2023-02-08T18:27:16.937Z,99.90
2023-02-08T18:31:22.550Z,99.90
2023-02-08T18:35:24.342Z,99.90
2023-02-08T18:39:26.494Z,99.90
2023-02-08T18:43:28.135Z,99.90
2023-02-08T18:47:29.818Z,99.90
2023-02-08T18:51:31.703Z,99.90
2023-02-08T18:55:33.472Z,99.90
2023-02-08T18:59:35.308Z,99.90
2023-02-08T19:03:37.730Z,99.90
2023-02-08T19:07:39.981Z,99.90
2023-02-08T19:11:43.902Z,99.90
2023-02-08T19:15:45.962Z,99.90
2023-02-08T19:19:47.836Z,99.90
2023-02-08T19:23:54.673Z,99.90
2023-02-08T19:27:56.258Z,99.90
2023-02-08T19:31:58.461Z,99.90
2023-02-08T19:36:08.382Z,99.90
2023-02-08T19:40:11.147Z,99.90
2023-02-08T19:44:15.889Z,99.90
2023-02-08T19:48:17.717Z,99.90
2023-02-08T19:52:22.361Z,99.90
2023-02-08T19:56:23.999Z,99.90
2023-02-08T20:00:25.895Z,99.90
2023-02-08T20:04:27.577Z,99.90
2023-02-08T20:08:29.266Z,99.90
2023-02-08T20:12:30.935Z,99.90
2023-02-08T20:16:33.776Z,99.90
2023-02-08T20:20:36.371Z,99.90
2023-02-08T20:24:38.086Z,99.90
2023-02-08T20:28:44.260Z,99.90
2023-02-08T20:32:47.062Z,99.90
2023-02-08T20:37:05.819Z,99.90
2023-02-08T20:41:11.488Z,99.90
2023-02-08T20:45:15.052Z,99.90
2023-02-08T20:49:22.037Z,99.90
2023-02-08T20:53:23.697Z,99.90
2023-02-08T20:57:25.642Z,99.90
2023-02-08T21:01:28.411Z,99.90
2023-02-08T21:05:30.369Z,99.90
2023-02-08T21:09:32.324Z,99.90
2023-02-08T21:13:34.045Z,99.90
2023-02-08T21:17:38.640Z,99.90
2023-02-08T21:21:42.269Z,99.90
2023-02-08T21:25:44.681Z,99.90
2023-02-08T21:29:50.409Z,99.90
2023-02-08T21:33:52.462Z,99.90
2023-02-08T21:37:54.101Z,99.90
2023-02-08T21:41:55.743Z,99.90
2023-02-08T21:46:02.340Z,99.90
2023-02-08T21:50:22.820Z,99.90
2023-02-08T21:54:42.383Z,99.90
2023-02-08T21:58:44.060Z,99.90
2023-02-08T22:02:45.743Z,99.90
2023-02-08T22:06:50.186Z,99.90
2023-02-08T22:10:58.350Z,99.90
2023-02-08T22:15:00.384Z,99.90
2023-02-08T22:19:02.153Z,99.90
2023-02-08T22:23:04.599Z,99.90
2023-02-08T22:27:06.247Z,99.90
2023-02-08T22:31:07.983Z,99.90
2023-02-08T22:35:11.169Z,99.90
2023-02-08T22:39:12.891Z,99.90
2023-02-08T22:43:14.549Z,99.90
2023-02-08T22:47:16.504Z,99.90
2023-02-08T22:51:19.132Z,99.90
2023-02-08T22:55:20.807Z,99.90
2023-02-08T22:59:22.538Z,99.90
2023-02-08T23:03:24.625Z,99.90
2023-02-08T23:07:26.353Z,99.90
2023-02-08T23:11:28.200Z,99.90
2023-02-08T23:15:30.254Z,99.90
2023-02-08T23:19:31.904Z,99.90
2023-02-08T23:23:33.567Z,99.90
2023-02-08T23:27:35.325Z,99.90
2023-02-08T23:31:40.231Z,99.90
2023-02-08T23:35:42.046Z,99.90
2023-02-08T23:39:43.744Z,99.90
2023-02-08T23:43:45.704Z,99.90
2023-02-08T23:47:47.336Z,99.90
2023-02-08T23:51:48.972Z,99.90
2023-02-08T23:55:50.643Z,99.90
2023-02-08T23:59:52.286Z,99.90
